Nearby METAR Reports

 

KMTN - Baltimore/Martin, Maryland, USA
Distance from station: SSE 8mi, 13km
Updated: Thu, 21-Aug-2014 9:45am EDT
Mostly cloudy
Mostly cloudy
 Wind from calm
Wind: Calm
Temperature: 77°F , 25°C
Dew Point: 73°F , 23°C
Humidity: 89%
Barometer: 30.05 inHg , 1017.6 hPa
Clouds: Mostly cloudy
Visibility: 10 miles , 16 km
Cloud details: Mostly cloudy 1100 ft
Mostly cloudy 2000 ft
2014/08/21 13:45 KMTN 211345Z 00000KT 10SM BKN011 BKN020 25/23 A3005
KDMH - Baltimore/Dwntwn, Maryland, USA
Distance from station: SW 12mi, 19km
Updated: Thu, 21-Aug-2014 9:54am EDT

 
Temperature: 79°F , 26°C
Dew Point: 72°F , 22°C
Humidity: 79%
Barometer: 30.04 inHg , 1017.3 hPa
2014/08/21 13:54 KDMH 211354Z AUTO 26/22 A3004 RMK AO1 SLP172 T02560217
 
KBWI - Balto/Wash Intl, Maryland, USA
Distance from station: SSW 20mi, 33km
Updated: Thu, 21-Aug-2014 9:54am EDT
Partly cloudy
Partly cloudy
 Wind from SW
Wind: SW 3 mph , 6 km/h
Temperature: 75°F , 24°C
Dew Point: 70°F , 21°C
Humidity: 83%
Barometer: 30.04 inHg , 1017.3 hPa
Clouds: Partly cloudy
Visibility: 10 miles , 16 km
Cloud details: Partly cloudy 700 ft
Partly cloudy 6000 ft
Partly cloudy 14000 ft
Partly cloudy 25000 ft
2014/08/21 13:54 KBWI 211354Z 23003KT 10SM SCT007 SCT060 SCT140 SCT250 24/21 A3004 RMK AO2 RAE00 SLP170 P0000 T02390211
KDMW - Carroll Cnty, Maryland, USA
Distance from station: WNW 30mi, 48km
Updated: Thu, 21-Aug-2014 9:55am EDT
Clear
Clear
 Wind from WSW
Wind: WSW 5 mph , 7 km/h
Temperature: 73°F , 23°C
Dew Point: 72°F , 22°C
Humidity: 94%
Barometer: 30.06 inHg , 1017.9 hPa
Clouds: Clear
Visibility: 10 miles , 16 km
2014/08/21 13:55 KDMW 211355Z AUTO 24004KT 10SM CLR 23/22 A3006 RMK AO2 LTG DSNT N AND NE
 
KNAK - Annapolis/Naval, Maryland, USA
Distance from station: S 30mi, 48km
Updated: Thu, 21-Aug-2014 9:54am EDT

 Wind from calm
Wind: Calm
Temperature: 77°F , 25°C
Dew Point: 70°F , 21°C
Humidity: 79%
Barometer: 30.04 inHg , 1017.3 hPa
Visibility: 10 miles , 16 km
2014/08/21 13:54 KNAK 211354Z AUTO 00000KT 10SM 25/21 A3004 RMK AO2 RAE1255 SLP173 P0000 T02500206 $
KW29 - Stevensville, Maryland, USA
Distance from station: SSE 31mi, 50km
Updated: Thu, 21-Aug-2014 9:56am EDT

 Wind from calm
Wind: Calm
Temperature: 77°F , 25°C
Dew Point: 70°F , 21°C
Humidity: 79%
Barometer: 30.04 inHg , 1017.3 hPa
Visibility: 10 miles , 16 km
2014/08/21 13:56 KW29 211356Z AUTO 00000KT 10SM 25/21 A3004 RMK AO1
 
KCGS - College Park, Maryland, USA
Distance from station: SW 38mi, 61km
Updated: Thu, 21-Aug-2014 9:55am EDT
Partly cloudy
Partly cloudy
 Wind from calm
Wind: Calm
Temperature: 73°F , 23°C
Dew Point: 72°F , 22°C
Humidity: 94%
Barometer: 30.05 inHg , 1017.6 hPa
Clouds: Partly cloudy
Visibility: 10 miles , 16 km
Cloud details: Partly cloudy 800 ft
Partly cloudy 12000 ft
2014/08/21 13:55 KCGS 211355Z AUTO 00000KT 10SM SCT008 SCT120 23/22 A3005 RMK AO1
KGAI - Gaithersburg, Maryland, USA
Distance from station: WSW 40mi, 65km
Updated: Thu, 21-Aug-2014 9:55am EDT
Clear
Clear
 Wind from W
Wind: W 3 mph , 6 km/h
Temperature: 73°F , 23°C
Dew Point: 68°F , 20°C
Humidity: 83%
Barometer: 30.10 inHg , 1019.3 hPa
Clouds: Clear
Visibility: 10 miles , 16 km
2014/08/21 13:55 KGAI 211355Z AUTO 27003KT 10SM CLR 23/20 A3010 RMK AO1
 
KTHV - York, Pennsylvania, USA
Distance from station: NNW 40mi, 65km
Updated: Thu, 21-Aug-2014 9:53am EDT
Clear
Clear
 Wind from calm
Wind: Calm
Temperature: 73°F , 23°C
Dew Point: 66°F , 19°C
Humidity: 78%
Barometer: 30.05 inHg , 1017.6 hPa
Clouds: Clear
Visibility: 10 miles , 16 km
2014/08/21 13:53 KTHV 211353Z AUTO 00000KT 10SM CLR 23/19 A3005 RMK AO2 SLP175 T02330194
KFDK - Frederick, Maryland, USA
Distance from station: W 47mi, 75km
Updated: Thu, 21-Aug-2014 9:47am EDT
Clear
Clear
 Wind from WSW
Wind: WSW 3 mph , 6 km/h
Temperature: 77°F , 25°C
Dew Point: 72°F , 22°C
Humidity: 83%
Barometer: 30.08 inHg , 1018.6 hPa
Clouds: Clear
Visibility: 10 miles , 16 km
2014/08/21 13:47 KFDK 211347Z 25003KT 10SM SKC 25/22 A3008
 
KESN - Easton/Newnam, Maryland, USA
Distance from station: SSE 48mi, 78km
Updated: Thu, 21-Aug-2014 9:50am EDT
Mostly cloudy
Mostly cloudy
 Wind from calm
Wind: Calm
Temperature: 81°F , 27°C
Heat Index: 86°F , 30°C
Dew Point: 73°F , 23°C
Humidity: 79%
Barometer: 30.08 inHg , 1018.6 hPa
Clouds: Mostly cloudy
Visibility: 10 miles , 16 km
Cloud details: Partly cloudy 1200 ft
Partly cloudy 2000 ft
Mostly cloudy 9500 ft
2014/08/21 13:50 KESN 211350Z 00000KT 10SM SCT012 SCT020 BKN095 27/23 A3008
KDCA - Washington/Natl, Washington D.c., USA
Distance from station: SW 49mi, 79km
Updated: Thu, 21-Aug-2014 9:52am EDT
Partly cloudy
Partly cloudy
 Wind from SSE
Wind: SSE 3 mph , 6 km/h
Temperature: 77°F , 25°C
Dew Point: 68°F , 20°C
Humidity: 74%
Barometer: 30.05 inHg , 1017.6 hPa
Clouds: Partly cloudy
Visibility: 10 miles , 16 km
Cloud details: Few Clouds 2000 ft
Partly cloudy 8000 ft
2014/08/21 13:52 KDCA 211352Z 16003KT 10SM FEW020 SCT080 25/20 A3005 RMK AO2 SLP176 T02500200
 
KLNS - Lancaster, Pennsylvania, USA
Distance from station: N 49mi, 79km
Updated: Thu, 21-Aug-2014 9:53am EDT
Haze, Overcast
Haze, Overcast
 Wind from ESE
Wind: ESE 3 mph , 6 km/h
Temperature: 72°F , 22°C
Dew Point: 66°F , 19°C
Humidity: 83%
Barometer: 30.05 inHg , 1017.6 hPa
Summary: Haze
Clouds: Overcast
Visibility: 6 miles , 10 km
Cloud details: Overcast 1200 ft
2014/08/21 13:53 KLNS 211353Z 12003KT 6SM HZ OVC012 22/19 A3005 RMK AO2 SLP174 T02220194
KILG - Wilmington, Delaware, USA
Distance from station: ENE 50mi, 81km
Updated: Thu, 21-Aug-2014 9:51am EDT
Mostly cloudy
Mostly cloudy
 Wind from calm
Wind: Calm
Temperature: 75°F , 24°C
Dew Point: 70°F , 21°C
Humidity: 83%
Barometer: 30.06 inHg , 1017.9 hPa
Clouds: Mostly cloudy
Visibility: 10 miles , 16 km
Cloud details: Mostly cloudy 1600 ft
Mostly cloudy 11000 ft
2014/08/21 13:51 KILG 211351Z 00000KT 10SM BKN016 BKN110 24/21 A3006 RMK AO2 SLP179 T02390206